Time;durP1;ratioP1;P1;durP2;ratioP2;P2;SDS_P1;SDS_P2;PMS_P1;PMS_P2;Temp;Humidity;BMP_temperature;BMP_pressure;BME280_temperature;BME280_humidity;BME280_pressure;Samples;Min_cycle;Max_cycle;Signal;HPM_P1;HPM_P2
2023/09/28 00:02:22;;;;;;;6.10;5.47;;;20.80;88.50;;;;;;5073250;28;20452;-58
2023/09/28 00:04:49;;;;;;;10.77;5.83;;;20.80;88.60;;;;;;5073045;28;20812;-57
2023/09/28 00:07:16;;;;;;;10.03;6.67;;;20.80;88.30;;;;;;5073294;28;20472;-57
2023/09/28 00:09:41;;;;;;;5.77;5.27;;;20.80;88.00;;;;;;5073223;28;20464;-57
2023/09/28 00:12:08;;;;;;;7.23;6.30;;;20.90;88.10;;;;;;5073490;28;20807;-58
2023/09/28 00:14:34;;;;;;;6.40;5.80;;;20.90;88.40;;;;;;5073038;28;20206;-57
2023/09/28 00:17:03;;;;;;;6.33;5.73;;;20.80;88.50;;;;;;5073084;28;20479;-58
2023/09/28 00:19:29;;;;;;;6.23;5.63;;;20.80;88.60;;;;;;5073092;28;20226;-58
2023/09/28 00:21:56;;;;;;;6.17;5.57;;;20.80;88.20;;;;;;5073012;28;20439;-58
2023/09/28 00:24:23;;;;;;;5.63;5.10;;;20.90;88.10;;;;;;5072881;28;20998;-58
2023/09/28 00:26:51;;;;;;;6.47;5.67;;;20.80;88.10;;;;;;5073048;28;20441;-58
2023/09/28 00:29:18;;;;;;;6.10;5.40;;;20.90;88.10;;;;;;5072993;28;20845;-58
2023/09/28 00:31:45;;;;;;;6.90;6.10;;;20.80;88.30;;;;;;5075265;28;20448;-58
2023/09/28 00:34:12;;;;;;;4.80;4.40;;;20.80;88.10;;;;;;5076686;28;21000;-58
2023/09/28 00:36:39;;;;;;;6.10;5.00;;;20.80;88.30;;;;;;5076841;28;20444;-57
2023/09/28 00:39:05;;;;;;;5.00;4.60;;;20.80;87.70;;;;;;5076590;28;20471;-57
2023/09/28 00:41:32;;;;;;;5.10;4.60;;;20.80;87.40;;;;;;5076903;28;20448;-57
2023/09/28 00:43:59;;;;;;;5.07;4.57;;;20.80;87.30;;;;;;5076726;28;20441;-57
2023/09/28 00:46:29;;;;;;;6.00;4.70;;;20.80;87.50;;;;;;5076803;28;20479;-57
2023/09/28 00:48:58;;;;;;;5.00;4.50;;;20.80;87.50;;;;;;5076683;28;20435;-57
2023/09/28 00:51:28;;;;;;;5.90;4.17;;;20.90;87.60;;;;;;5076618;28;20441;-57
2023/09/28 00:53:55;;;;;;;5.47;4.50;;;20.90;87.60;;;;;;5076914;28;20456;-58
2023/09/28 00:56:23;;;;;;;4.80;4.40;;;20.80;87.60;;;;;;5076520;28;20453;-58
2023/09/28 00:58:52;;;;;;;4.77;4.27;;;20.90;87.70;;;;;;5076358;28;20484;-58
2023/09/28 01:01:18;;;;;;;6.47;4.80;;;20.90;87.50;;;;;;5076491;28;20445;-58
2023/09/28 01:03:44;;;;;;;6.07;4.03;;;20.90;87.30;;;;;;5076427;28;20455;-58
2023/09/28 01:06:12;;;;;;;4.73;4.33;;;20.80;86.60;;;;;;5076514;28;20448;-58
2023/09/28 01:08:39;;;;;;;7.47;3.60;;;20.80;86.50;;;;;;5076142;28;20289;-57
2023/09/28 01:11:09;;;;;;;4.43;3.83;;;20.80;86.50;;;;;;5076257;28;20464;-57
2023/09/28 01:13:35;;;;;;;4.20;3.80;;;20.80;86.60;;;;;;5076033;28;20841;-57
2023/09/28 01:16:02;;;;;;;5.17;4.47;;;20.80;86.80;;;;;;5076186;28;20448;-57
2023/09/28 01:18:28;;;;;;;6.67;4.13;;;20.90;87.00;;;;;;5076075;28;20309;-58
2023/09/28 01:20:54;;;;;;;4.73;4.20;;;20.80;87.20;;;;;;5076039;28;20563;-57
2023/09/28 01:23:22;;;;;;;4.90;4.33;;;20.80;87.70;;;;;;5076034;28;20230;-58
2023/09/28 01:25:49;;;;;;;4.57;4.17;;;20.80;88.10;;;;;;5076126;28;20456;-57
2023/09/28 01:28:16;;;;;;;4.50;4.17;;;20.80;88.00;;;;;;5075723;28;20958;-57
2023/09/28 01:30:43;;;;;;;6.10;5.00;;;20.80;88.00;;;;;;5075881;28;20472;-58
2023/09/28 01:33:09;;;;;;;5.70;4.83;;;20.80;88.20;;;;;;5075960;28;20877;-58
2023/09/28 01:35:36;;;;;;;6.73;4.77;;;20.80;88.50;;;;;;5075967;28;20519;-58
2023/09/28 01:38:12;;;;;;;5.00;4.50;;;20.80;88.60;;;;;;5075831;28;20280;-58
2023/09/28 01:40:40;;;;;;;7.20;5.37;;;20.80;89.00;;;;;;5075804;28;20495;-57
2023/09/28 01:43:07;;;;;;;5.47;4.30;;;20.70;89.30;;;;;;5074365;28;20456;-57
2023/09/28 01:45:34;;;;;;;6.53;5.93;;;20.70;89.40;;;;;;5075356;28;20444;-58
2023/09/28 01:48:00;;;;;;;9.27;7.50;;;20.70;89.90;;;;;;5075639;28;20464;-58
2023/09/28 01:50:26;;;;;;;12.53;7.43;;;20.70;90.00;;;;;;5075519;28;21024;-58
2023/09/28 01:52:52;;;;;;;11.30;7.43;;;20.70;90.00;;;;;;5075508;28;20202;-58
2023/09/28 01:55:19;;;;;;;13.50;8.53;;;20.60;90.00;;;;;;5075481;28;20452;-57
2023/09/28 01:57:46;;;;;;;11.50;8.13;;;20.60;90.00;;;;;;5075421;28;20250;-57
2023/09/28 02:00:15;;;;;;;11.70;7.93;;;20.60;90.00;;;;;;5075282;28;20543;-58
2023/09/28 02:02:42;;;;;;;12.43;7.70;;;20.60;90.20;;;;;;5075394;28;20536;-58
2023/09/28 02:05:11;;;;;;;10.47;7.40;;;20.50;90.10;;;;;;5075258;28;20448;-57
2023/09/28 02:07:37;;;;;;;13.40;9.40;;;20.50;90.20;;;;;;5075315;28;20445;-57
2023/09/28 02:10:04;;;;;;;12.00;8.13;;;20.50;90.30;;;;;;5075246;28;20831;-57
2023/09/28 02:12:30;;;;;;;9.17;7.30;;;20.40;90.40;;;;;;5075325;28;20206;-58
2023/09/28 02:15:00;;;;;;;12.43;7.93;;;20.40;90.40;;;;;;5075198;28;20959;-57
2023/09/28 02:17:27;;;;;;;12.93;7.50;;;20.40;90.60;;;;;;5075175;28;20206;-57
2023/09/28 02:19:54;;;;;;;10.13;8.03;;;20.30;90.60;;;;;;5074977;28;21006;-57
2023/09/28 02:22:20;;;;;;;8.80;7.90;;;20.30;90.80;;;;;;5075074;28;20942;-57
2023/09/28 02:24:46;;;;;;;10.60;8.90;;;20.20;90.80;;;;;;5074949;28;20457;-57
2023/09/28 02:27:12;;;;;;;10.40;7.73;;;20.20;90.90;;;;;;5075186;28;20203;-57
2023/09/28 02:29:39;;;;;;;10.70;8.30;;;20.20;91.00;;;;;;5075184;28;20522;-57
2023/09/28 02:32:06;;;;;;;9.67;8.37;;;20.10;91.00;;;;;;5075710;28;20214;-57
2023/09/28 02:34:34;;;;;;;10.90;8.70;;;20.10;91.00;;;;;;5075051;28;20460;-58
2023/09/28 02:37:02;;;;;;;9.77;7.30;;;20.10;91.00;;;;;;5074557;28;20440;-58
2023/09/28 02:39:28;;;;;;;9.10;7.97;;;20.10;91.10;;;;;;5074581;28;20472;-58
2023/09/28 02:41:55;;;;;;;8.53;7.43;;;20.10;91.10;;;;;;5074606;28;20444;-58
2023/09/28 02:44:21;;;;;;;8.60;7.03;;;20.10;91.10;;;;;;5074482;28;20207;-57
2023/09/28 02:46:50;;;;;;;9.60;6.60;;;20.00;91.20;;;;;;5074545;28;20448;-57
2023/09/28 02:49:17;;;;;;;7.37;6.77;;;20.00;91.10;;;;;;5074076;28;20219;-58
2023/09/28 02:51:45;;;;;;;7.80;6.50;;;20.00;91.00;;;;;;5074026;28;20962;-58
2023/09/28 02:54:11;;;;;;;7.40;6.70;;;20.00;91.00;;;;;;5073581;28;20958;-58
2023/09/28 02:56:39;;;;;;;9.40;8.53;;;20.00;91.10;;;;;;5074223;28;20475;-57
2023/09/28 02:59:06;;;;;;;9.37;8.27;;;20.00;91.10;;;;;;5073805;28;20226;-58
2023/09/28 03:01:33;;;;;;;9.43;7.43;;;20.00;91.20;;;;;;5074022;28;20459;-57
2023/09/28 03:04:00;;;;;;;9.10;7.20;;;19.90;91.20;;;;;;5074056;28;20464;-57
2023/09/28 03:06:28;;;;;;;9.37;6.77;;;19.90;91.20;;;;;;5074066;28;20473;-57
2023/09/28 03:08:54;;;;;;;7.53;6.70;;;19.80;91.30;;;;;;5073845;28;20437;-57
2023/09/28 03:11:20;;;;;;;8.80;7.30;;;19.80;91.40;;;;;;5073724;28;20811;-58
2023/09/28 03:13:48;;;;;;;7.30;6.60;;;19.80;91.40;;;;;;5073511;28;20672;-57
2023/09/28 03:16:15;;;;;;;10.57;8.10;;;19.70;91.50;;;;;;5073907;28;20449;-57
2023/09/28 03:18:41;;;;;;;10.33;8.00;;;19.70;91.50;;;;;;5073721;28;20489;-57
2023/09/28 03:21:09;;;;;;;9.30;7.13;;;19.60;91.50;;;;;;5073793;28;20830;-57
2023/09/28 03:23:36;;;;;;;9.97;6.50;;;19.60;91.60;;;;;;5073256;28;20572;-57
2023/09/28 03:26:02;;;;;;;7.10;6.50;;;19.60;91.70;;;;;;5073765;28;20439;-58
2023/09/28 03:28:30;;;;;;;7.13;6.40;;;19.50;91.60;;;;;;5073760;28;20441;-58
2023/09/28 03:30:57;;;;;;;8.37;6.93;;;19.50;91.70;;;;;;5073337;28;20989;-58
2023/09/28 03:33:22;;;;;;;7.60;5.60;;;19.50;91.70;;;;;;5073314;28;20548;-57
2023/09/28 03:35:49;;;;;;;10.23;7.07;;;19.40;91.70;;;;;;5073576;28;20444;-57
2023/09/28 03:38:16;;;;;;;8.27;6.60;;;19.40;91.80;;;;;;5073545;28;20218;-57
2023/09/28 03:40:44;;;;;;;8.60;7.60;;;19.40;91.90;;;;;;5073058;28;20468;-58
2023/09/28 03:43:11;;;;;;;8.23;7.30;;;19.40;92.00;;;;;;5073067;28;20801;-57
2023/09/28 03:45:37;;;;;;;8.60;7.37;;;19.30;92.10;;;;;;5073122;28;20921;-57
2023/09/28 03:48:05;;;;;;;8.10;7.30;;;19.30;92.20;;;;;;5073523;28;20466;-57
2023/09/28 03:50:32;;;;;;;8.60;7.40;;;19.30;92.20;;;;;;5073465;28;20472;-58
2023/09/28 03:52:59;;;;;;;7.73;6.57;;;19.30;92.20;;;;;;5073382;28;20451;-57
2023/09/28 03:55:26;;;;;;;8.30;7.40;;;19.20;92.10;;;;;;5073542;28;20495;-57
2023/09/28 03:57:54;;;;;;;7.60;6.83;;;19.20;92.20;;;;;;5073901;28;20476;-58
2023/09/28 04:00:21;;;;;;;7.47;6.80;;;19.20;92.30;;;;;;5073375;28;20471;-57
2023/09/28 04:02:49;;;;;;;8.50;7.70;;;19.20;92.40;;;;;;5074124;28;20502;-57
2023/09/28 04:05:16;;;;;;;8.07;6.93;;;19.10;92.30;;;;;;5072497;28;20448;-57
2023/09/28 04:07:43;;;;;;;7.47;6.63;;;19.10;92.40;;;;;;5072944;28;20935;-57
2023/09/28 04:10:11;;;;;;;9.33;7.10;;;19.10;92.40;;;;;;5073215;28;20461;-58
2023/09/28 04:12:38;;;;;;;9.73;6.73;;;19.10;92.40;;;;;;5073232;28;20486;-57
2023/09/28 04:15:09;;;;;;;10.10;7.70;;;19.10;92.50;;;;;;5072841;28;20445;-57
2023/09/28 04:17:37;;;;;;;6.80;6.03;;;19.00;92.50;;;;;;5073017;28;20433;-57
2023/09/28 04:20:05;;;;;;;7.63;6.93;;;19.00;92.60;;;;;;5073157;28;20471;-58
2023/09/28 04:22:32;;;;;;;8.30;6.30;;;19.00;92.70;;;;;;5073070;28;20479;-57
2023/09/28 04:24:58;;;;;;;7.80;6.60;;;19.00;92.70;;;;;;5072998;28;20534;-57
2023/09/28 04:27:25;;;;;;;9.13;6.83;;;19.00;92.70;;;;;;5073156;28;20436;-57
2023/09/28 04:29:52;;;;;;;8.13;6.57;;;19.00;92.80;;;;;;5073060;28;20464;-58
2023/09/28 04:32:20;;;;;;;8.20;6.33;;;19.00;92.90;;;;;;5073051;28;20452;-58
2023/09/28 04:34:47;;;;;;;8.60;6.30;;;18.90;92.90;;;;;;5073293;28;20494;-58
2023/09/28 04:37:16;;;;;;;7.10;6.37;;;18.90;92.90;;;;;;5073228;28;20824;-58
2023/09/28 04:39:42;;;;;;;7.17;6.10;;;18.90;92.90;;;;;;5073543;28;20854;-58
2023/09/28 04:42:09;;;;;;;6.23;5.47;;;18.90;92.80;;;;;;5073117;28;20444;-57
2023/09/28 04:44:36;;;;;;;6.30;5.70;;;18.90;92.90;;;;;;5072949;28;20820;-57
2023/09/28 04:47:02;;;;;;;5.90;5.40;;;18.80;92.80;;;;;;5073153;28;20469;-58
2023/09/28 04:49:30;;;;;;;9.50;5.63;;;18.80;92.80;;;;;;5072892;28;20464;-57
2023/09/28 04:51:58;;;;;;;7.50;5.20;;;18.80;92.80;;;;;;5073240;28;20437;-57
2023/09/28 04:54:25;;;;;;;6.40;5.73;;;18.80;92.80;;;;;;5072568;28;20953;-58
2023/09/28 04:56:52;;;;;;;7.07;5.30;;;18.70;92.80;;;;;;5072650;28;20938;-58
2023/09/28 04:59:19;;;;;;;7.93;5.60;;;18.70;92.90;;;;;;5072414;28;20998;-57
2023/09/28 05:01:47;;;;;;;5.83;5.23;;;18.70;92.90;;;;;;5072437;28;21044;-57
2023/09/28 05:04:13;;;;;;;6.90;4.80;;;18.70;92.90;;;;;;5088261;28;20995;-57
2023/09/28 05:06:42;;;;;;;6.40;5.80;;;18.70;93.00;;;;;;5092918;28;20450;-58
2023/09/28 05:09:13;;;;;;;5.13;4.73;;;18.70;93.10;;;;;;5092884;28;20460;-58
2023/09/28 05:11:40;;;;;;;6.43;5.00;;;18.60;93.10;;;;;;5092676;28;20955;-57
2023/09/28 05:14:07;;;;;;;5.30;4.80;;;18.60;93.20;;;;;;5092768;28;20448;-57
2023/09/28 05:16:33;;;;;;;5.20;4.70;;;18.60;93.20;;;;;;5093088;28;20446;-57
2023/09/28 05:19:00;;;;;;;6.60;4.77;;;18.60;93.20;;;;;;5096407;28;20479;-57
2023/09/28 05:21:27;;;;;;;5.77;4.93;;;18.60;93.30;;;;;;5096381;28;20440;-58
2023/09/28 05:23:55;;;;;;;5.80;4.70;;;18.50;93.20;;;;;;5095920;28;20452;-57
2023/09/28 05:26:21;;;;;;;6.60;4.60;;;18.60;93.30;;;;;;5096762;28;20827;-57
2023/09/28 05:28:48;;;;;;;9.00;4.63;;;18.60;93.50;;;;;;5095923;28;20435;-58
2023/09/28 05:31:15;;;;;;;5.80;4.40;;;18.70;93.70;;;;;;5095886;28;20945;-58
2023/09/28 05:33:42;;;;;;;7.13;4.67;;;18.70;93.80;;;;;;5095533;28;20960;-57
2023/09/28 05:36:08;;;;;;;8.10;4.57;;;18.70;93.80;;;;;;5075922;28;20472;-58
2023/09/28 05:38:35;;;;;;;7.93;4.40;;;18.60;93.80;;;;;;5075725;28;20488;-58
2023/09/28 05:41:03;;;;;;;6.57;4.57;;;18.60;93.80;;;;;;5075389;28;20978;-57
2023/09/28 05:43:30;;;;;;;6.47;4.50;;;18.60;93.80;;;;;;5075774;28;20457;-57
2023/09/28 05:45:57;;;;;;;5.43;3.93;;;18.60;93.80;;;;;;5075468;28;20976;-57
2023/09/28 05:48:24;;;;;;;7.53;4.60;;;18.60;93.90;;;;;;5075741;28;20869;-58
2023/09/28 05:50:51;;;;;;;7.13;4.40;;;18.60;93.90;;;;;;5075634;28;20465;-57
2023/09/28 05:53:18;;;;;;;9.77;4.53;;;18.60;93.90;;;;;;5075159;28;20804;-57
2023/09/28 05:55:44;;;;;;;9.23;4.77;;;18.50;93.80;;;;;;5075526;28;20445;-58
2023/09/28 05:58:12;;;;;;;9.40;5.70;;;18.50;93.90;;;;;;5075412;28;20449;-58
2023/09/28 06:00:40;;;;;;;10.07;5.13;;;18.50;93.90;;;;;;5075010;28;20978;-57
2023/09/28 06:03:07;;;;;;;4.80;3.70;;;18.50;94.00;;;;;;5075066;28;20498;-57
2023/09/28 06:05:34;;;;;;;8.93;4.30;;;18.50;94.10;;;;;;5075050;28;20443;-57
2023/09/28 06:08:00;;;;;;;7.10;4.73;;;18.50;94.00;;;;;;5075259;28;20437;-57
2023/09/28 06:10:27;;;;;;;7.30;4.73;;;18.50;94.10;;;;;;5075135;28;20893;-57
2023/09/28 06:12:55;;;;;;;7.87;4.30;;;18.50;94.10;;;;;;5074863;28;20945;-57
2023/09/28 06:15:23;;;;;;;7.23;5.50;;;18.50;94.20;;;;;;5074869;28;20449;-57
2023/09/28 06:17:49;;;;;;;5.20;4.17;;;18.50;94.20;;;;;;5074746;28;20867;-57
2023/09/28 06:20:17;;;;;;;9.90;4.40;;;18.50;94.30;;;;;;5074508;28;20868;-57
2023/09/28 06:22:44;;;;;;;5.60;4.90;;;18.50;94.30;;;;;;5075026;28;20444;-56
2023/09/28 06:25:10;;;;;;;4.73;4.23;;;18.50;94.40;;;;;;5074777;28;20461;-57
2023/09/28 06:27:38;;;;;;;7.23;4.20;;;18.50;94.50;;;;;;5074711;28;20445;-57
2023/09/28 06:30:05;;;;;;;7.03;4.20;;;18.50;94.50;;;;;;5073892;28;21020;-57
2023/09/28 06:32:34;;;;;;;7.07;4.30;;;18.60;94.80;;;;;;5074749;28;20449;-57
2023/09/28 06:35:01;;;;;;;8.40;4.33;;;18.60;94.90;;;;;;5074368;28;20845;-57
2023/09/28 06:37:27;;;;;;;8.50;4.50;;;18.70;95.00;;;;;;5074393;28;20930;-57
2023/09/28 06:39:55;;;;;;;4.70;4.30;;;18.70;95.10;;;;;;5074460;28;20511;-57
2023/09/28 06:42:21;;;;;;;8.30;4.77;;;18.80;95.30;;;;;;5074516;28;20495;-57
2023/09/28 06:44:48;;;;;;;8.97;4.53;;;18.80;95.50;;;;;;5074467;28;20455;-56
2023/09/28 06:47:15;;;;;;;8.53;4.50;;;18.90;95.70;;;;;;5074474;28;20674;-57
2023/09/28 06:49:43;;;;;;;9.57;4.73;;;18.90;95.80;;;;;;5074085;28;20978;-57
2023/09/28 06:52:10;;;;;;;9.10;4.93;;;19.00;96.10;;;;;;5074052;28;20456;-57
2023/09/28 06:54:38;;;;;;;8.87;5.10;;;19.00;96.30;;;;;;5074310;28;20856;-57
2023/09/28 06:57:04;;;;;;;5.33;4.67;;;19.00;96.30;;;;;;5074305;28;20453;-57
2023/09/28 06:59:31;;;;;;;5.90;5.17;;;19.10;96.30;;;;;;5073762;28;20869;-57
2023/09/28 07:01:58;;;;;;;7.67;5.23;;;19.20;96.20;;;;;;5074144;28;20892;-57
2023/09/28 07:04:24;;;;;;;9.03;5.87;;;19.30;96.40;;;;;;5074184;28;20451;-57
2023/09/28 07:06:52;;;;;;;7.00;5.00;;;19.30;96.30;;;;;;5074230;28;20494;-57
2023/09/28 07:09:20;;;;;;;5.93;4.67;;;19.40;96.40;;;;;;5074053;28;20469;-57
2023/09/28 07:11:47;;;;;;;7.73;5.20;;;19.50;96.30;;;;;;5073962;28;20459;-56
2023/09/28 07:14:14;;;;;;;9.83;5.33;;;19.50;96.20;;;;;;5073915;28;20448;-57
2023/09/28 07:16:40;;;;;;;8.23;4.63;;;19.60;96.20;;;;;;5073633;28;20915;-57
2023/09/28 07:19:07;;;;;;;6.50;5.13;;;19.60;96.10;;;;;;5073405;28;20487;-57
2023/09/28 07:21:33;;;;;;;12.53;5.10;;;19.70;96.20;;;;;;5073505;28;20968;-57
2023/09/28 07:24:03;;;;;;;5.57;4.97;;;19.80;96.30;;;;;;5073477;28;20456;-57
2023/09/28 07:26:30;;;;;;;6.17;4.37;;;19.90;95.90;;;;;;5073542;28;20919;-57
2023/09/28 07:28:57;;;;;;;8.23;5.23;;;20.00;95.80;;;;;;5073627;28;20451;-57
2023/09/28 07:31:24;;;;;;;6.10;4.60;;;20.10;95.70;;;;;;5073798;28;20445;-58
2023/09/28 07:33:51;;;;;;;6.93;4.90;;;20.20;95.50;;;;;;5073380;28;20946;-57
2023/09/28 07:36:18;;;;;;;5.87;5.23;;;20.30;95.50;;;;;;5073216;28;20790;-57
2023/09/28 07:38:47;;;;;;;7.20;5.00;;;20.40;95.90;;;;;;5073182;28;20998;-57
2023/09/28 07:41:15;;;;;;;7.40;5.00;;;20.50;95.50;;;;;;5073511;28;20791;-57
2023/09/28 07:43:41;;;;;;;7.70;4.63;;;20.70;95.00;;;;;;5073147;28;20452;-57
2023/09/28 07:46:08;;;;;;;5.30;4.40;;;20.70;94.90;;;;;;5073502;28;20490;-57
2023/09/28 07:48:36;;;;;;;13.37;4.57;;;20.80;94.90;;;;;;5073494;28;20449;-57
2023/09/28 07:51:03;;;;;;;5.80;4.53;;;20.90;94.90;;;;;;5073390;28;20542;-57
2023/09/28 07:53:30;;;;;;;7.30;4.70;;;21.00;94.80;;;;;;5073054;28;20491;-57
2023/09/28 07:55:57;;;;;;;7.50;5.03;;;21.10;94.40;;;;;;5073414;28;20452;-57
2023/09/28 07:58:25;;;;;;;7.20;4.80;;;21.20;94.20;;;;;;5073358;28;20454;-57
2023/09/28 08:00:52;;;;;;;7.90;4.10;;;21.30;94.30;;;;;;5073312;28;20488;-58
2023/09/28 08:03:19;;;;;;;6.80;4.90;;;21.30;93.70;;;;;;5073565;28;20439;-57
2023/09/28 08:05:45;;;;;;;5.23;4.37;;;21.40;93.70;;;;;;5073949;28;20543;-57
2023/09/28 08:08:12;;;;;;;7.60;4.57;;;21.50;93.50;;;;;;5073203;28;20958;-57
2023/09/28 08:10:39;;;;;;;10.90;4.60;;;21.50;93.20;;;;;;5073468;28;20510;-58
2023/09/28 08:13:06;;;;;;;6.37;4.80;;;21.50;93.00;;;;;;5073337;28;20443;-57
2023/09/28 08:15:34;;;;;;;12.53;4.93;;;21.50;92.90;;;;;;5073425;28;20449;-57
2023/09/28 08:18:01;;;;;;;10.27;5.60;;;21.40;92.90;;;;;;5073226;28;20996;-57
2023/09/28 08:20:27;;;;;;;11.43;5.30;;;21.40;92.90;;;;;;5073283;28;20522;-57
2023/09/28 08:22:54;;;;;;;9.10;4.70;;;21.30;93.00;;;;;;5073232;28;20436;-57
2023/09/28 08:25:21;;;;;;;9.77;5.00;;;21.40;93.30;;;;;;5072882;28;20456;-58
2023/09/28 08:27:48;;;;;;;7.57;4.97;;;21.40;93.00;;;;;;5073113;28;20444;-57
2023/09/28 08:30:15;;;;;;;7.40;5.70;;;21.30;93.20;;;;;;5073098;28;20927;-57
2023/09/28 08:32:43;;;;;;;6.70;5.17;;;21.40;93.60;;;;;;5073552;28;20436;-57
2023/09/28 08:35:11;;;;;;;9.13;5.30;;;21.50;93.40;;;;;;5072533;28;20958;-57
2023/09/28 08:37:38;;;;;;;5.17;4.50;;;21.60;93.10;;;;;;5072728;28;20472;-57
2023/09/28 08:40:05;;;;;;;7.20;5.40;;;21.60;92.40;;;;;;5072833;28;20864;-57
2023/09/28 08:42:33;;;;;;;13.27;5.00;;;21.70;92.20;;;;;;5072999;28;20449;-57
2023/09/28 08:45:02;;;;;;;8.47;4.40;;;21.80;91.80;;;;;;5072581;28;20945;-57
2023/09/28 08:47:33;;;;;;;7.50;4.23;;;21.80;91.70;;;;;;5072906;28;20522;-57
2023/09/28 08:50:02;;;;;;;7.83;4.87;;;21.80;91.30;;;;;;5072952;28;20485;-57
2023/09/28 08:52:30;;;;;;;4.83;3.93;;;21.90;91.10;;;;;;5074939;28;20445;-57
2023/09/28 08:54:58;;;;;;;5.87;4.27;;;22.00;91.10;;;;;;5076590;28;21003;-58
2023/09/28 08:57:27;;;;;;;8.93;4.90;;;22.10;90.70;;;;;;5076621;28;20444;-58
2023/09/28 08:59:55;;;;;;;6.33;4.00;;;22.00;90.90;;;;;;5076469;28;20491;-58
2023/09/28 09:02:22;;;;;;;10.10;5.20;;;22.10;90.60;;;;;;5076086;28;20946;-58
2023/09/28 09:04:49;;;;;;;8.33;4.30;;;22.20;90.90;;;;;;5076511;28;20448;-58
2023/09/28 09:07:20;;;;;;;9.53;3.90;;;22.20;89.80;;;;;;5076165;28;21026;-58
2023/09/28 09:09:47;;;;;;;9.03;3.80;;;22.30;90.30;;;;;;5076278;28;20461;-58
2023/09/28 09:12:14;;;;;;;7.87;3.93;;;22.30;87.90;;;;;;5076392;28;20448;-58
2023/09/28 09:14:41;;;;;;;7.87;3.70;;;22.40;88.80;;;;;;5076267;28;20452;-58
2023/09/28 09:17:11;;;;;;;7.20;3.60;;;22.50;87.50;;;;;;5075978;28;20946;-58
2023/09/28 09:19:38;;;;;;;7.90;3.93;;;22.70;86.30;;;;;;5076007;28;20490;-58
2023/09/28 09:22:05;;;;;;;7.60;3.70;;;22.70;84.60;;;;;;5076272;28;20457;-58
2023/09/28 09:24:33;;;;;;;7.30;4.13;;;22.70;83.80;;;;;;5075903;28;20448;-58
2023/09/28 09:27:00;;;;;;;10.43;4.43;;;22.80;83.60;;;;;;5076184;28;20447;-58
2023/09/28 09:29:27;;;;;;;11.47;4.63;;;22.90;83.10;;;;;;5075952;28;20457;-58
2023/09/28 09:31:54;;;;;;;7.27;3.50;;;23.00;83.80;;;;;;5075976;28;20881;-59
2023/09/28 09:34:22;;;;;;;9.57;4.60;;;23.10;84.60;;;;;;5075947;28;20449;-58
2023/09/28 09:36:57;;;;;;;10.60;3.80;;;23.20;83.70;;;;;;5075867;28;20445;-58
2023/09/28 09:39:26;;;;;;;7.17;4.03;;;23.40;83.20;;;;;;5075698;28;20857;-58
2023/09/28 09:41:55;;;;;;;9.93;3.77;;;23.50;79.90;;;;;;5075864;28;20536;-58
2023/09/28 09:44:23;;;;;;;10.63;4.03;;;23.50;80.20;;;;;;5075663;28;20510;-57
2023/09/28 09:46:52;;;;;;;5.37;3.10;;;23.60;80.00;;;;;;5075409;28;20954;-58
2023/09/28 09:49:20;;;;;;;6.90;3.30;;;23.50;76.80;;;;;;5075711;28;20522;-58
2023/09/28 09:51:48;;;;;;;6.43;3.67;;;23.30;77.70;;;;;;5075417;28;20935;-58
2023/09/28 09:54:16;;;;;;;7.37;3.80;;;23.20;79.50;;;;;;5075612;28;20525;-58
2023/09/28 09:56:44;;;;;;;6.93;3.60;;;23.10;79.20;;;;;;5075588;28;20502;-58
2023/09/28 09:59:15;;;;;;;9.67;3.83;;;23.20;79.40;;;;;;5075325;28;20522;-58
2023/09/28 10:01:46;;;;;;;7.33;3.70;;;23.40;79.40;;;;;;5075400;28;20421;-58
2023/09/28 10:04:16;;;;;;;8.73;3.53;;;23.60;79.30;;;;;;5073880;28;20429;-58
2023/09/28 10:06:45;;;;;;;9.80;3.50;;;23.70;75.80;;;;;;5075382;28;20928;-58
2023/09/28 10:09:13;;;;;;;10.70;4.13;;;23.80;76.70;;;;;;5074861;28;20465;-57
2023/09/28 10:11:41;;;;;;;6.77;3.33;;;24.10;76.30;;;;;;5075183;28;20451;-58
2023/09/28 10:14:08;;;;;;;5.43;3.33;;;24.40;73.30;;;;;;5075163;28;20437;-58
2023/09/28 10:16:37;;;;;;;9.90;3.33;;;24.80;71.70;;;;;;5075181;28;20453;-58
2023/09/28 10:19:06;;;;;;;8.43;3.40;;;25.10;70.70;;;;;;5074706;28;20473;-58
2023/09/28 10:21:37;;;;;;;9.40;4.00;;;25.50;68.80;;;;;;5074979;28;20476;-58
2023/09/28 10:24:11;;;;;;;5.67;3.20;;;25.80;68.40;;;;;;5074711;28;20460;-58
2023/09/28 10:26:39;;;;;;;9.23;3.50;;;26.00;66.60;;;;;;5074923;28;20799;-58
2023/09/28 10:29:07;;;;;;;9.40;3.53;;;26.00;64.40;;;;;;5074813;28;20809;-58
2023/09/28 10:31:35;;;;;;;10.63;3.97;;;26.00;64.60;;;;;;5074793;28;20463;-58
2023/09/28 10:34:04;;;;;;;6.97;3.20;;;25.80;64.20;;;;;;5074813;28;20468;-58
2023/09/28 10:36:32;;;;;;;9.70;3.27;;;25.70;66.50;;;;;;5074790;28;20436;-58
2023/09/28 10:39:13;;;;;;;7.80;3.53;;;25.70;64.70;;;;;;5074643;28;20437;-58
2023/09/28 10:41:41;;;;;;;5.80;3.70;;;25.60;66.30;;;;;;5074563;28;20555;-58
2023/09/28 10:44:16;;;;;;;6.87;3.20;;;25.60;66.20;;;;;;5074197;28;20958;-58
2023/09/28 10:46:43;;;;;;;7.70;2.90;;;25.70;66.40;;;;;;5074240;28;20474;-58
2023/09/28 10:49:14;;;;;;;8.80;3.40;;;25.60;65.50;;;;;;5074099;28;20973;-58
2023/09/28 10:51:41;;;;;;;8.90;3.10;;;25.60;65.00;;;;;;5074474;28;20429;-58
2023/09/28 10:54:08;;;;;;;6.70;3.40;;;25.70;65.30;;;;;;5073994;28;20931;-58
2023/09/28 10:56:35;;;;;;;7.60;3.30;;;25.90;64.40;;;;;;5074333;28;20468;-58
2023/09/28 10:59:04;;;;;;;8.47;3.77;;;26.10;63.80;;;;;;5073923;28;20818;-58
2023/09/28 11:01:31;;;;;;;10.00;3.80;;;26.60;61.50;;;;;;5074084;28;20483;-58
2023/09/28 11:03:58;;;;;;;8.90;3.60;;;26.90;59.70;;;;;;5073831;28;20984;-58
2023/09/28 11:06:26;;;;;;;13.33;3.30;;;26.90;58.30;;;;;;5074106;28;20451;-58
2023/09/28 11:08:54;;;;;;;8.23;3.50;;;27.00;59.40;;;;;;5073974;28;20440;-58
2023/09/28 11:11:21;;;;;;;8.23;2.90;;;27.10;59.40;;;;;;5074007;28;20444;-58
2023/09/28 11:13:49;;;;;;;7.13;3.00;;;26.80;57.70;;;;;;5073878;28;20456;-58
2023/09/28 11:16:18;;;;;;;11.37;3.43;;;26.80;58.50;;;;;;5073618;28;20475;-59
2023/09/28 11:18:45;;;;;;;8.00;3.77;;;26.90;59.20;;;;;;5073619;28;20470;-58
2023/09/28 11:21:12;;;;;;;8.50;4.00;;;26.90;59.10;;;;;;5073629;28;21086;-58
2023/09/28 11:23:41;;;;;;;11.97;3.70;;;27.00;59.10;;;;;;5074225;28;20847;-58
2023/09/28 11:26:10;;;;;;;7.80;3.87;;;27.00;59.50;;;;;;5074203;28;20433;-58
2023/09/28 11:28:37;;;;;;;10.00;4.20;;;27.00;59.50;;;;;;5074138;28;20452;-58
2023/09/28 11:31:07;;;;;;;14.93;3.90;;;26.80;59.00;;;;;;5074029;28;20453;-58
2023/09/28 11:33:34;;;;;;;7.33;3.90;;;26.60;60.50;;;;;;5073844;28;20520;-58
2023/09/28 11:36:01;;;;;;;7.50;3.77;;;26.40;60.10;;;;;;5073309;28;20958;-56
2023/09/28 11:38:28;;;;;;;8.10;3.60;;;26.20;61.10;;;;;;5073889;28;20801;-57
2023/09/28 11:40:57;;;;;;;8.17;3.80;;;26.10;62.10;;;;;;5073416;28;20511;-57
2023/09/28 11:43:24;;;;;;;9.47;3.73;;;26.40;62.20;;;;;;5073537;28;20448;-57
2023/09/28 11:45:51;;;;;;;8.40;3.50;;;27.00;58.70;;;;;;5073271;28;20444;-57
2023/09/28 11:48:19;;;;;;;8.63;4.10;;;27.90;57.30;;;;;;5073644;28;20539;-57
2023/09/28 11:50:47;;;;;;;7.23;3.87;;;28.90;54.20;;;;;;5073486;28;20496;-57
2023/09/28 11:53:15;;;;;;;7.70;3.60;;;29.90;53.40;;;;;;5073237;28;20834;-57
2023/09/28 11:55:42;;;;;;;7.10;3.73;;;30.20;48.90;;;;;;5073500;28;20437;-57
2023/09/28 11:58:11;;;;;;;9.67;3.77;;;29.90;49.60;;;;;;5074218;28;20496;-57
2023/09/28 12:00:38;;;;;;;7.53;3.67;;;29.70;50.10;;;;;;5073346;28;20491;-57
2023/09/28 12:03:06;;;;;;;11.57;3.40;;;29.80;51.10;;;;;;5073382;28;20448;-57
2023/09/28 12:05:33;;;;;;;7.03;3.53;;;30.00;50.90;;;;;;5073384;28;20444;-57
2023/09/28 12:08:00;;;;;;;12.73;3.70;;;30.30;48.90;;;;;;5073350;28;20450;-57
2023/09/28 12:10:27;;;;;;;9.73;3.77;;;30.60;47.40;;;;;;5073185;28;20464;-57
2023/09/28 12:12:55;;;;;;;8.17;3.50;;;31.00;48.10;;;;;;5073228;28;20448;-58
2023/09/28 12:15:23;;;;;;;9.10;4.00;;;31.30;46.70;;;;;;5073340;28;20448;-57
2023/09/28 12:17:50;;;;;;;9.40;4.20;;;31.00;46.40;;;;;;5073385;28;20446;-57
2023/09/28 12:20:17;;;;;;;9.77;3.47;;;30.90;47.30;;;;;;5073273;28;20848;-57
2023/09/28 12:22:44;;;;;;;7.30;3.93;;;31.00;47.30;;;;;;5073210;28;20444;-58
2023/09/28 12:25:13;;;;;;;11.13;3.67;;;30.90;45.80;;;;;;5072876;28;20513;-58
2023/09/28 12:27:44;;;;;;;5.30;3.70;;;30.80;46.70;;;;;;5075640;28;20464;-58
2023/09/28 12:30:12;;;;;;;6.17;3.53;;;30.80;46.80;;;;;;5077111;28;20471;-58
2023/09/28 12:32:40;;;;;;;6.83;3.70;;;30.90;47.00;;;;;;5077078;28;20443;-58
2023/09/28 12:35:08;;;;;;;6.30;3.80;;;30.70;47.80;;;;;;5077070;28;20479;-58
2023/09/28 12:37:36;;;;;;;6.77;3.60;;;30.50;48.40;;;;;;5076727;28;20811;-58
2023/09/28 12:40:04;;;;;;;8.17;3.90;;;30.20;47.40;;;;;;5076799;28;20517;-58
2023/09/28 12:42:30;;;;;;;10.43;4.33;;;30.00;48.30;;;;;;5076890;28;20452;-58
2023/09/28 12:44:58;;;;;;;9.67;4.13;;;29.90;49.00;;;;;;5076819;28;20444;-58
2023/09/28 12:47:26;;;;;;;6.47;3.40;;;29.80;50.00;;;;;;5076869;28;20527;-58